Time;durP1;ratioP1;P1;durP2;ratioP2;P2;SDS_P1;SDS_P2;PMS_P1;PMS_P2;Temp;Humidity;BMP_temperature;BMP_pressure;BME280_temperature;BME280_humidity;BME280_pressure;Samples;Min_cycle;Max_cycle;Signal;HPM_P1;HPM_P2
2024/01/23 00:00:25;;;;;;;;;;;5.60;99.90;;;;;;4908600;29;19918;-50
2024/01/23 00:02:51;;;;;;;;;;;5.50;99.90;;;;;;4908514;29;19953;-53
2024/01/23 00:05:16;;;;;;;;;;;5.60;99.90;;;;;;4901986;29;19912;-50
2024/01/23 00:07:42;;;;;;;;;;;5.50;99.90;;;;;;4904969;29;19923;-52
2024/01/23 00:10:08;;;;;;;;;;;5.50;99.90;;;;;;4902417;29;19917;-51
2024/01/23 00:12:33;;;;;;;;;;;5.40;99.90;;;;;;4916290;29;19950;-48
2024/01/23 00:14:58;;;;;;;;;;;5.40;99.90;;;;;;4897278;29;19911;-50
2024/01/23 00:17:24;;;;;;;;;;;5.30;99.90;;;;;;4896706;29;20002;-51
2024/01/23 00:19:50;;;;;;;;;;;5.30;99.90;;;;;;4904950;29;19976;-50
2024/01/23 00:22:15;;;;;;;;;;;5.20;99.90;;;;;;4905048;29;19927;-51
2024/01/23 00:24:41;;;;;;;;;;;5.20;99.90;;;;;;4906262;29;20371;-49
2024/01/23 00:27:07;;;;;;;;;;;5.20;99.90;;;;;;4902924;29;20381;-49
2024/01/23 00:29:34;;;;;;;;;;;5.30;99.90;;;;;;4912559;29;19911;-51
2024/01/23 00:32:03;;;;;;;;;;;5.20;99.90;;;;;;4909132;29;19915;-51
2024/01/23 00:34:28;;;;;;;;;;;5.20;99.90;;;;;;4906977;29;20295;-50
2024/01/23 00:36:54;;;;;;;;;;;5.30;99.90;;;;;;4896176;29;19927;-49
2024/01/23 00:39:19;;;;;;;;;;;5.30;99.90;;;;;;4903436;29;19945;-50
2024/01/23 00:41:45;;;;;;;;;;;5.30;99.90;;;;;;4906022;29;19991;-48
2024/01/23 00:44:10;;;;;;;;;;;5.30;99.90;;;;;;4902015;29;20388;-49
2024/01/23 00:46:36;;;;;;;;;;;5.30;99.90;;;;;;4914935;29;19911;-52
2024/01/23 00:49:01;;;;;;;;;;;5.20;99.90;;;;;;4903634;29;19915;-53
2024/01/23 00:51:28;;;;;;;;;;;5.30;99.90;;;;;;4904359;29;19911;-48
2024/01/23 00:53:53;;;;;;;;;;;5.30;99.90;;;;;;4896581;29;19914;-51
2024/01/23 00:56:18;;;;;;;;;;;5.40;99.90;;;;;;4910238;29;20010;-51
2024/01/23 00:58:44;;;;;;;;;;;5.50;99.90;;;;;;4907366;29;19963;-50
2024/01/23 01:01:10;;;;;;;;;;;5.50;99.90;;;;;;4914359;29;20435;-52
2024/01/23 01:03:35;;;;;;;;;;;5.50;99.90;;;;;;4899245;29;19915;-48
2024/01/23 01:06:01;;;;;;;;;;;5.40;99.90;;;;;;4907543;29;20432;-53
2024/01/23 01:08:26;;;;;;;;;;;5.40;99.90;;;;;;4900167;29;20365;-52
2024/01/23 01:10:51;;;;;;;;;;;5.40;99.90;;;;;;4907501;29;19911;-48
2024/01/23 01:13:17;;;;;;;;;;;5.30;99.90;;;;;;4907447;29;19915;-51
2024/01/23 01:15:42;;;;;;;;;;;5.30;99.90;;;;;;4912976;29;19915;-51
2024/01/23 01:18:08;;;;;;;;;;;5.20;99.90;;;;;;4900979;29;20567;-50
2024/01/23 01:20:33;;;;;;;;;;;5.10;99.90;;;;;;4906864;29;20131;-50
2024/01/23 01:22:59;;;;;;;;;;;5.10;99.90;;;;;;4900055;29;19961;-51
2024/01/23 01:25:25;;;;;;;;;;;5.10;99.90;;;;;;4914651;29;19954;-49
2024/01/23 01:27:50;;;;;;;;;;;5.10;99.90;;;;;;4904337;29;19925;-50
2024/01/23 01:30:16;;;;;;;;;;;5.10;99.90;;;;;;4896320;29;19907;-48
2024/01/23 01:32:41;;;;;;;;;;;5.10;99.90;;;;;;4896143;29;20011;-48
2024/01/23 01:35:07;;;;;;;;;;;5.10;99.90;;;;;;4900002;29;19990;-52
2024/01/23 01:37:33;;;;;;;;;;;5.20;99.90;;;;;;4898810;29;19934;-49
2024/01/23 01:39:58;;;;;;;;;;;5.20;99.90;;;;;;4903698;29;19911;-49
2024/01/23 01:42:24;;;;;;;;;;;5.20;99.90;;;;;;4895739;29;19920;-50
2024/01/23 01:44:50;;;;;;;;;;;5.20;99.90;;;;;;4903317;29;19911;-52
2024/01/23 01:47:16;;;;;;;;;;;5.30;99.90;;;;;;4900993;29;20375;-51
2024/01/23 01:49:42;;;;;;;;;;;5.30;99.90;;;;;;4912928;29;19907;-48
2024/01/23 01:52:08;;;;;;;;;;;5.40;99.90;;;;;;4903526;29;19915;-53
2024/01/23 01:54:33;;;;;;;;;;;5.40;99.90;;;;;;4903262;29;19915;-48
2024/01/23 01:57:00;;;;;;;;;;;5.50;99.90;;;;;;4897134;29;20249;-49
2024/01/23 01:59:26;;;;;;;;;;;5.50;99.90;;;;;;4906911;29;19911;-51
2024/01/23 02:01:52;;;;;;;;;;;5.50;99.90;;;;;;4906572;29;19922;-48
2024/01/23 02:04:17;;;;;;;;;;;5.40;99.90;;;;;;4908189;29;19915;-50
2024/01/23 02:06:43;;;;;;;;;;;5.50;99.90;;;;;;4911528;29;20636;-49
2024/01/23 02:09:09;;;;;;;;;;;5.50;99.90;;;;;;4906368;29;19941;-49
2024/01/23 02:11:34;;;;;;;;;;;5.60;99.90;;;;;;4913738;29;19976;-49
2024/01/23 02:13:59;;;;;;;;;;;5.60;99.90;;;;;;4895106;29;20447;-51
2024/01/23 02:16:25;;;;;;;;;;;5.60;99.90;;;;;;4894888;29;19925;-52
2024/01/23 02:18:50;;;;;;;;;;;5.70;99.90;;;;;;4910710;29;19922;-52
2024/01/23 02:21:16;;;;;;;;;;;5.80;99.90;;;;;;4908949;29;19993;-52
2024/01/23 02:23:42;;;;;;;;;;;5.80;99.90;;;;;;4906105;29;20380;-50
2024/01/23 02:26:07;;;;;;;;;;;5.80;99.90;;;;;;4908849;29;19952;-49
2024/01/23 02:28:33;;;;;;;;;;;5.90;99.90;;;;;;4910824;29;19962;-50
2024/01/23 02:30:58;;;;;;;;;;;5.90;99.90;;;;;;4909856;29;20286;-52
2024/01/23 02:33:24;;;;;;;;;;;5.90;99.90;;;;;;4903855;29;19926;-51
2024/01/23 02:35:49;;;;;;;;;;;5.90;99.90;;;;;;4912402;29;20387;-51
2024/01/23 02:38:15;;;;;;;;;;;5.80;99.90;;;;;;4900497;29;19998;-49
2024/01/23 02:40:40;;;;;;;;;;;5.80;99.90;;;;;;4903769;29;19986;-54
2024/01/23 02:43:06;;;;;;;;;;;5.70;99.90;;;;;;4906460;29;19917;-50
2024/01/23 02:45:31;;;;;;;;;;;5.70;99.90;;;;;;4913274;29;20320;-52
2024/01/23 02:47:56;;;;;;;;;;;5.70;99.90;;;;;;4910480;29;19927;-50
2024/01/23 02:50:22;;;;;;;;;;;5.70;99.90;;;;;;4902917;29;19919;-51
2024/01/23 02:52:49;;;;;;;;;;;5.60;99.90;;;;;;4904719;29;19922;-49
2024/01/23 02:55:14;;;;;;;;;;;5.70;99.90;;;;;;4913308;29;19914;-51
2024/01/23 02:57:40;;;;;;;;;;;5.70;99.90;;;;;;4897385;29;20459;-48
2024/01/23 03:00:06;;;;;;;;;;;5.60;99.90;;;;;;4902628;29;19954;-48
2024/01/23 03:02:31;;;;;;;;;;;5.70;99.90;;;;;;4903110;29;19919;-54
2024/01/23 03:04:57;;;;;;;;;;;5.60;99.90;;;;;;4908791;29;19994;-51
2024/01/23 03:07:22;;;;;;;;;;;5.70;99.90;;;;;;4917612;29;19930;-51
2024/01/23 03:09:48;;;;;;;;;;;5.60;99.90;;;;;;4911547;29;19911;-50
2024/01/23 03:12:17;;;;;;;;;;;5.50;99.90;;;;;;4902862;29;20340;-49
2024/01/23 03:14:43;;;;;;;;;;;5.40;99.90;;;;;;4910162;29;20562;-53
2024/01/23 03:17:09;;;;;;;;;;;5.20;99.90;;;;;;4902062;29;19916;-54
2024/01/23 03:19:35;;;;;;;;;;;5.10;99.90;;;;;;4902376;29;19915;-52
2024/01/23 03:22:00;;;;;;;;;;;4.90;99.90;;;;;;4895081;29;19921;-51
2024/01/23 03:24:26;;;;;;;;;;;4.80;99.90;;;;;;4902736;29;19911;-53
2024/01/23 03:26:51;;;;;;;;;;;4.60;99.90;;;;;;4900077;29;20325;-51
2024/01/23 03:29:17;;;;;;;;;;;4.40;99.90;;;;;;4916980;29;19915;-50
2024/01/23 03:31:43;;;;;;;;;;;4.30;99.90;;;;;;4907880;29;19931;-49
2024/01/23 03:34:08;;;;;;;;;;;4.20;99.90;;;;;;4905915;29;19949;-48
2024/01/23 03:36:33;;;;;;;;;;;4.10;99.90;;;;;;4905554;29;19933;-51
2024/01/23 03:38:59;;;;;;;;;;;4.10;99.90;;;;;;4909011;29;19956;-50
2024/01/23 03:41:24;;;;;;;;;;;3.90;99.90;;;;;;4909187;29;19926;-49
2024/01/23 03:43:50;;;;;;;;;;;3.90;99.90;;;;;;4908866;29;20322;-50
2024/01/23 03:46:15;;;;;;;;;;;3.90;99.90;;;;;;4903056;29;19955;-53
2024/01/23 03:48:41;;;;;;;;;;;3.90;99.90;;;;;;4907674;29;20019;-49
2024/01/23 03:51:06;;;;;;;;;;;3.80;99.90;;;;;;4923497;29;19930;-49
2024/01/23 03:53:32;;;;;;;;;;;3.80;99.90;;;;;;4916462;29;19927;-49
2024/01/23 03:55:58;;;;;;;;;;;3.80;99.90;;;;;;4921072;29;19929;-53
2024/01/23 03:58:23;;;;;;;;;;;3.80;99.90;;;;;;4912000;29;19976;-49
2024/01/23 04:00:49;;;;;;;;;;;3.80;99.90;;;;;;4924397;29;20034;-52
2024/01/23 04:03:14;;;;;;;;;;;3.80;99.90;;;;;;4916564;29;19931;-48
2024/01/23 04:05:40;;;;;;;;;;;3.80;99.90;;;;;;4916319;29;20277;-50
2024/01/23 04:08:05;;;;;;;;;;;3.90;99.90;;;;;;4916315;29;19954;-48
2024/01/23 04:10:31;;;;;;;;;;;3.90;99.90;;;;;;4908820;29;19936;-48
2024/01/23 04:12:56;;;;;;;;;;;4.00;99.90;;;;;;4916056;29;19931;-48
2024/01/23 04:15:22;;;;;;;;;;;4.10;99.90;;;;;;4909665;29;19957;-49
2024/01/23 04:17:47;;;;;;;;;;;4.20;99.90;;;;;;4906923;29;19976;-51
2024/01/23 04:20:13;;;;;;;;;;;4.20;99.90;;;;;;4916270;29;19926;-52
2024/01/23 04:22:39;;;;;;;;;;;4.30;99.90;;;;;;4907423;29;20022;-49
2024/01/23 04:25:04;;;;;;;;;;;4.20;99.90;;;;;;4908666;29;19938;-50
2024/01/23 04:27:33;;;;;;;;;;;4.30;99.90;;;;;;4900769;29;19963;-49
2024/01/23 04:29:58;;;;;;;;;;;4.30;99.90;;;;;;4897312;29;19927;-52
2024/01/23 04:32:24;;;;;;;;;;;4.40;99.90;;;;;;4897211;29;20015;-51
2024/01/23 04:34:49;;;;;;;;;;;4.40;99.90;;;;;;4904630;29;19981;-50
2024/01/23 04:37:15;;;;;;;;;;;4.50;99.90;;;;;;4900657;29;19941;-51
2024/01/23 04:39:40;;;;;;;;;;;4.60;99.90;;;;;;4915803;29;19982;-52
2024/01/23 04:42:06;;;;;;;;;;;4.50;99.90;;;;;;4912271;29;19921;-51
2024/01/23 04:44:31;;;;;;;;;;;4.60;99.90;;;;;;4911605;29;20048;-49
2024/01/23 04:46:57;;;;;;;;;;;4.70;99.90;;;;;;4904150;29;19918;-52
2024/01/23 04:49:22;;;;;;;;;;;4.70;99.90;;;;;;4903997;29;19939;-55
2024/01/23 04:51:48;;;;;;;;;;;4.70;99.90;;;;;;4912403;29;20690;-52
2024/01/23 04:54:13;;;;;;;;;;;4.70;99.90;;;;;;4896703;29;19923;-52
2024/01/23 04:56:40;;;;;;;;;;;4.80;99.90;;;;;;4904090;29;19916;-51
2024/01/23 04:59:05;;;;;;;;;;;4.80;99.90;;;;;;4916762;29;19918;-49
2024/01/23 05:01:31;;;;;;;;;;;4.90;99.90;;;;;;4915521;29;19911;-52
2024/01/23 05:03:56;;;;;;;;;;;4.90;99.90;;;;;;4907463;29;19918;-49
2024/01/23 05:06:22;;;;;;;;;;;4.80;99.90;;;;;;4908695;29;19927;-52
2024/01/23 05:08:47;;;;;;;;;;;4.90;99.90;;;;;;4896292;29;20287;-52
2024/01/23 05:11:12;;;;;;;;;;;4.90;99.90;;;;;;4904314;29;19923;-48
2024/01/23 05:13:40;;;;;;;;;;;5.00;99.90;;;;;;4904151;29;20042;-54
2024/01/23 05:16:06;;;;;;;;;;;5.00;99.90;;;;;;4906216;29;19915;-51
2024/01/23 05:18:31;;;;;;;;;;;5.00;99.90;;;;;;4899623;29;19935;-53
2024/01/23 05:20:57;;;;;;;;;;;5.00;99.90;;;;;;4911705;29;19915;-50
2024/01/23 05:23:24;;;;;;;;;;;5.00;99.90;;;;;;4904006;29;20299;-50
2024/01/23 05:25:49;;;;;;;;;;;5.00;99.90;;;;;;4897581;29;20395;-53
2024/01/23 05:28:15;;;;;;;;;;;4.90;99.90;;;;;;4915106;29;19948;-49
2024/01/23 05:30:40;;;;;;;;;;;4.90;99.90;;;;;;4906928;29;19953;-54
2024/01/23 05:33:06;;;;;;;;;;;4.90;99.90;;;;;;4902818;29;20368;-52
2024/01/23 05:35:31;;;;;;;;;;;4.80;99.90;;;;;;4895559;29;19998;-51
2024/01/23 05:37:57;;;;;;;;;;;4.80;99.90;;;;;;4914242;29;19966;-52
2024/01/23 05:40:23;;;;;;;;;;;4.80;99.90;;;;;;4907116;29;19922;-49
2024/01/23 05:42:48;;;;;;;;;;;4.80;99.90;;;;;;4901430;29;19919;-49
2024/01/23 05:45:14;;;;;;;;;;;4.80;99.90;;;;;;4914120;29;19915;-51
2024/01/23 05:47:39;;;;;;;;;;;4.80;99.90;;;;;;4897546;29;19925;-48
2024/01/23 05:50:05;;;;;;;;;;;4.80;99.90;;;;;;4895700;29;19926;-49
2024/01/23 05:52:30;;;;;;;;;;;4.80;99.90;;;;;;4910685;29;20343;-52
2024/01/23 05:54:56;;;;;;;;;;;4.80;99.90;;;;;;4895749;29;19938;-51
2024/01/23 05:57:21;;;;;;;;;;;4.80;99.90;;;;;;4893865;29;20211;-48
2024/01/23 05:59:47;;;;;;;;;;;4.80;99.90;;;;;;4911165;29;19911;-50
2024/01/23 06:02:12;;;;;;;;;;;4.90;99.90;;;;;;4895486;29;20045;-49
2024/01/23 06:04:38;;;;;;;;;;;4.90;99.90;;;;;;4903050;29;19958;-51
2024/01/23 06:07:06;;;;;;;;;;;5.00;99.90;;;;;;4894840;29;20406;-51
2024/01/23 06:09:31;;;;;;;;;;;4.90;99.90;;;;;;4903583;29;19951;-52
2024/01/23 06:11:57;;;;;;;;;;;4.90;99.90;;;;;;4903329;29;20231;-53
2024/01/23 06:14:22;;;;;;;;;;;5.00;99.90;;;;;;4901566;29;20319;-52
2024/01/23 06:16:48;;;;;;;;;;;5.00;99.90;;;;;;4911773;29;19915;-52
2024/01/23 06:19:13;;;;;;;;;;;5.10;99.90;;;;;;4895207;29;20399;-49
2024/01/23 06:21:39;;;;;;;;;;;5.10;99.90;;;;;;4902969;29;19919;-48
2024/01/23 06:24:04;;;;;;;;;;;5.00;99.90;;;;;;4902918;29;19919;-50
2024/01/23 06:26:32;;;;;;;;;;;4.90;99.90;;;;;;4901776;29;19915;-51
2024/01/23 06:28:58;;;;;;;;;;;4.90;99.90;;;;;;4904565;29;19919;-51
2024/01/23 06:31:26;;;;;;;;;;;4.80;99.90;;;;;;4906505;29;19915;-49
2024/01/23 06:33:51;;;;;;;;;;;4.90;99.90;;;;;;4903795;29;20288;-49
2024/01/23 06:36:17;;;;;;;;;;;4.90;99.90;;;;;;4902333;29;19919;-51
2024/01/23 06:38:42;;;;;;;;;;;4.90;99.90;;;;;;4911439;29;19915;-52
2024/01/23 06:41:08;;;;;;;;;;;5.00;99.90;;;;;;4909516;29;19927;-50
2024/01/23 06:43:33;;;;;;;;;;;5.00;99.90;;;;;;4902726;29;19975;-50
2024/01/23 06:45:59;;;;;;;;;;;5.00;99.90;;;;;;4913284;29;19918;-53
2024/01/23 06:48:25;;;;;;;;;;;5.00;99.90;;;;;;4899247;29;19958;-55
2024/01/23 06:50:50;;;;;;;;;;;5.00;99.90;;;;;;4904596;29;19958;-51
2024/01/23 06:53:16;;;;;;;;;;;5.00;99.90;;;;;;4913981;29;20014;-52
2024/01/23 06:55:41;;;;;;;;;;;5.00;99.90;;;;;;4904450;29;20383;-49
2024/01/23 06:58:07;;;;;;;;;;;5.10;99.90;;;;;;4894973;29;19919;-54
2024/01/23 07:00:33;;;;;;;;;;;5.10;99.90;;;;;;4914008;29;20007;-53
2024/01/23 07:02:59;;;;;;;;;;;5.10;99.90;;;;;;4898774;29;20228;-50
2024/01/23 07:05:24;;;;;;;;;;;5.20;99.90;;;;;;4904746;29;19959;-54
2024/01/23 07:07:50;;;;;;;;;;;5.20;99.90;;;;;;4909187;29;20502;-51
2024/01/23 07:10:15;;;;;;;;;;;5.20;99.90;;;;;;4917446;29;19911;-52
2024/01/23 07:12:41;;;;;;;;;;;5.30;99.90;;;;;;4917392;29;20458;-53
2024/01/23 07:15:06;;;;;;;;;;;5.30;99.90;;;;;;4913089;29;19911;-48
2024/01/23 07:17:32;;;;;;;;;;;5.30;99.90;;;;;;4921813;29;19915;-52
2024/01/23 07:19:58;;;;;;;;;;;5.20;99.90;;;;;;4914131;29;19915;-55
2024/01/23 07:22:24;;;;;;;;;;;5.30;99.90;;;;;;4905129;29;19949;-51
2024/01/23 07:24:50;;;;;;;;;;;5.30;99.90;;;;;;4909259;29;19954;-51
2024/01/23 07:27:15;;;;;;;;;;;5.30;99.90;;;;;;4903684;29;19911;-51
2024/01/23 07:29:41;;;;;;;;;;;5.30;99.90;;;;;;4906698;29;20291;-53
2024/01/23 07:32:06;;;;;;;;;;;5.30;99.90;;;;;;4905134;29;19911;-53
2024/01/23 07:34:32;;;;;;;;;;;5.30;99.90;;;;;;4905229;29;19970;-52
2024/01/23 07:36:57;;;;;;;;;;;5.40;99.90;;;;;;4899755;29;19915;-55
2024/01/23 07:39:23;;;;;;;;;;;5.30;99.90;;;;;;4917271;29;20293;-50
2024/01/23 07:41:49;;;;;;;;;;;5.30;99.90;;;;;;4909044;29;19922;-52
2024/01/23 07:44:14;;;;;;;;;;;5.30;99.90;;;;;;4911441;29;19920;-52
2024/01/23 07:46:40;;;;;;;;;;;5.30;99.90;;;;;;4896970;29;19916;-51
2024/01/23 07:49:05;;;;;;;;;;;5.30;99.90;;;;;;4903892;29;19991;-50
2024/01/23 07:51:49;;;;;;;;;;;5.30;99.90;;;;;;4904925;29;20010;-48
2024/01/23 07:54:15;;;;;;;;;;;5.20;99.90;;;;;;4910204;29;19986;-49
2024/01/23 07:56:41;;;;;;;;;;;5.20;99.90;;;;;;4914835;29;20017;-52
2024/01/23 07:59:06;;;;;;;;;;;5.30;99.90;;;;;;4908756;29;19911;-49
2024/01/23 08:01:32;;;;;;;;;;;5.40;99.90;;;;;;4907802;29;19934;-48
2024/01/23 08:03:57;;;;;;;;;;;5.40;99.90;;;;;;4906127;29;20120;-50
2024/01/23 08:06:23;;;;;;;;;;;5.40;99.90;;;;;;4906963;29;20393;-49
2024/01/23 08:08:49;;;;;;;;;;;5.50;99.90;;;;;;4907649;29;19922;-50
2024/01/23 08:11:15;;;;;;;;;;;5.50;99.90;;;;;;4907072;29;19966;-50
2024/01/23 08:13:41;;;;;;;;;;;5.50;99.90;;;;;;4914809;29;19911;-49
2024/01/23 08:16:09;;;;;;;;;;;5.50;99.90;;;;;;4903706;29;20407;-52
2024/01/23 08:18:36;;;;;;;;;;;5.50;99.90;;;;;;4904120;29;20399;-49
2024/01/23 08:21:02;;;;;;;;;;;5.50;99.90;;;;;;4907633;29;19998;-50
2024/01/23 08:23:27;;;;;;;;;;;5.50;99.90;;;;;;4900883;29;19915;-49
2024/01/23 08:25:53;;;;;;;;;;;5.60;99.90;;;;;;4903349;29;19939;-49
2024/01/23 08:28:19;;;;;;;;;;;5.60;99.90;;;;;;4909204;29;19923;-52
2024/01/23 08:30:45;;;;;;;;;;;5.60;99.90;;;;;;4914965;29;20599;-51
2024/01/23 08:33:17;;;;;;;;;;;5.60;99.90;;;;;;4907489;29;19942;-51
2024/01/23 08:35:42;;;;;;;;;;;5.60;99.90;;;;;;4905976;29;19951;-55
2024/01/23 08:38:09;;;;;;;;;;;5.60;99.90;;;;;;4908189;29;20524;-52
2024/01/23 08:40:34;;;;;;;;;;;5.60;99.90;;;;;;4907170;29;20010;-51
2024/01/23 08:43:00;;;;;;;;;;;5.60;99.90;;;;;;4915035;29;20009;-52
2024/01/23 08:45:25;;;;;;;;;;;5.60;99.90;;;;;;4907202;29;20367;-54
2024/01/23 08:47:51;;;;;;;;;;;5.70;99.90;;;;;;4912965;29;19915;-52
2024/01/23 08:50:16;;;;;;;;;;;5.60;99.90;;;;;;4909233;29;20256;-53
2024/01/23 08:52:43;;;;;;;;;;;5.70;99.90;;;;;;4914296;29;19911;-53
2024/01/23 08:55:09;;;;;;;;;;;5.70;99.90;;;;;;4898309;29;19981;-51
2024/01/23 08:57:34;;;;;;;;;;;5.70;99.90;;;;;;4899467;29;19916;-55
2024/01/23 09:00:00;;;;;;;;;;;5.70;99.90;;;;;;4894707;29;19926;-55
2024/01/23 09:02:27;;;;;;;;;;;5.70;99.90;;;;;;4910295;29;19950;-55
2024/01/23 09:04:52;;;;;;;;;;;5.60;99.90;;;;;;4914433;29;19983;-52
2024/01/23 09:07:18;;;;;;;;;;;5.70;99.90;;;;;;4914321;29;19941;-53
2024/01/23 09:09:44;;;;;;;;;;;5.60;99.90;;;;;;4906773;29;19919;-54
2024/01/23 09:12:10;;;;;;;;;;;5.70;99.90;;;;;;4910305;29;20025;-55
2024/01/23 09:14:35;;;;;;;;;;;5.70;99.90;;;;;;4903362;29;19915;-55
2024/01/23 09:17:01;;;;;;;;;;;5.70;99.90;;;;;;4902805;29;19918;-55
2024/01/23 09:19:26;;;;;;;;;;;5.70;99.90;;;;;;4903305;29;19911;-53
2024/01/23 09:21:53;;;;;;;;;;;5.70;99.90;;;;;;4902651;29;19914;-54
2024/01/23 09:24:19;;;;;;;;;;;5.80;99.90;;;;;;4908679;29;19911;-54
2024/01/23 09:26:44;;;;;;;;;;;5.80;99.90;;;;;;4914092;29;19922;-55
2024/01/23 09:29:10;;;;;;;;;;;5.80;99.90;;;;;;4914135;29;19915;-54
2024/01/23 09:31:42;;;;;;;;;;;5.80;99.90;;;;;;4914326;29;19918;-54
2024/01/23 09:34:08;;;;;;;;;;;5.80;99.90;;;;;;4902438;29;20059;-54
2024/01/23 09:36:33;;;;;;;;;;;5.80;99.90;;;;;;4909822;29;20390;-53
2024/01/23 09:38:59;;;;;;;;;;;5.90;99.90;;;;;;4913994;29;19923;-54
2024/01/23 09:41:26;;;;;;;;;;;6.00;99.90;;;;;;4912758;29;20063;-53
2024/01/23 09:43:58;;;;;;;;;;;6.00;99.90;;;;;;5058219;28;19919;-52
2024/01/23 09:46:24;;;;;;;;;;;6.00;99.90;;;;;;5066368;28;19920;-51
2024/01/23 09:48:50;;;;;;;;;;;6.00;99.90;;;;;;5058008;28;20436;-54
2024/01/23 09:51:17;;;;;;;;;;;6.10;99.90;;;;;;5052992;28;19917;-56
2024/01/23 09:53:44;;;;;;;;;;;6.10;99.90;;;;;;5055443;28;20018;-54
2024/01/23 09:56:12;;;;;;;;;;;6.10;99.90;;;;;;5063171;28;19916;-55
2024/01/23 09:58:38;;;;;;;;;;;6.20;99.90;;;;;;5049559;28;19979;-54
2024/01/23 10:01:04;;;;;;;;;;;6.30;99.90;;;;;;5060068;28;20155;-51
2024/01/23 10:03:36;;;;;;;;;;;6.30;99.90;;;;;;5063075;28;19931;-54
2024/01/23 10:06:01;;;;;;;;;;;6.30;99.90;;;;;;5036302;28;19917;-52
2024/01/23 10:08:27;;;;;;;;;;;6.20;99.90;;;;;;5055141;28;19921;-52
2024/01/23 10:10:56;;;;;;;;;;;6.30;99.90;;;;;;5048132;28;20000;-55
2024/01/23 10:13:22;;;;;;;;;;;6.30;99.90;;;;;;5048936;28;19991;-52
2024/01/23 10:15:47;;;;;;;;;;;6.40;99.90;;;;;;5047465;28;19920;-50
2024/01/23 10:18:13;;;;;;;;;;;6.40;99.90;;;;;;5049213;28;20004;-53
2024/01/23 10:20:39;;;;;;;;;;;6.40;99.90;;;;;;5050740;28;19923;-55
2024/01/23 10:23:04;;;;;;;;;;;6.30;99.90;;;;;;5057585;28;20343;-55
2024/01/23 10:25:31;;;;;;;;;;;6.30;99.90;;;;;;5050517;28;20040;-53
2024/01/23 10:27:57;;;;;;;;;;;6.30;99.90;;;;;;5053054;28;20296;-53
2024/01/23 10:30:23;;;;;;;;;;;6.40;99.90;;;;;;5060289;28;19920;-54
2024/01/23 10:32:48;;;;;;;;;;;6.50;99.90;;;;;;5037885;28;20021;-54
2024/01/23 10:35:14;;;;;;;;;;;6.50;99.90;;;;;;5051683;28;20341;-52
2024/01/23 10:37:40;;;;;;;;;;;6.50;99.90;;;;;;5065282;28;19920;-53
2024/01/23 10:40:08;;;;;;;;;;;6.60;99.90;;;;;;5065428;28;19913;-53
2024/01/23 10:42:33;;;;;;;;;;;6.60;99.90;;;;;;5057818;28;19925;-52
2024/01/23 10:44:59;;;;;;;;;;;6.70;99.90;;;;;;5076467;28;19919;-53
2024/01/23 10:47:25;;;;;;;;;;;6.70;99.90;;;;;;5078464;28;20043;-55
2024/01/23 10:49:50;;;;;;;;;;;6.70;99.90;;;;;;5047005;28;19999;-53
2024/01/23 10:52:18;;;;;;;;;;;6.70;99.90;;;;;;5055889;28;19912;-53
2024/01/23 10:54:45;;;;;;;;;;;6.80;99.90;;;;;;5057153;28;20459;-53
2024/01/23 10:57:13;;;;;;;;;;;6.90;99.90;;;;;;5031525;28;20384;-56
2024/01/23 10:59:39;;;;;;;;;;;7.10;99.90;;;;;;5040287;28;20004;-56
2024/01/23 11:02:19;;;;;;;;;;;7.10;99.90;;;;;;5055675;28;20086;-56
2024/01/23 11:04:45;;;;;;;;;;;7.10;99.90;;;;;;5062173;28;19932;-53
2024/01/23 11:07:26;;;;;;;;;;;7.00;99.90;;;;;;5064138;28;19923;-52
2024/01/23 11:09:56;;;;;;;;;;;7.00;99.90;;;;;;5068126;28;20291;-56
2024/01/23 11:12:27;;;;;;;;;;;7.20;99.90;;;;;;5043813;28;20334;-52
2024/01/23 11:14:57;;;;;;;;;;;7.30;99.90;;;;;;5071490;28;20376;-54
2024/01/23 11:17:22;;;;;;;;;;;7.50;99.90;;;;;;5055124;28;20283;-57
2024/01/23 11:20:03;;;;;;;;;;;7.60;99.90;;;;;;5054722;28;19921;-54
2024/01/23 11:22:28;;;;;;;;;;;7.70;99.90;;;;;;5064615;28;20391;-54
2024/01/23 11:24:54;;;;;;;;;;;7.70;99.90;;;;;;5069981;28;19912;-55
2024/01/23 11:27:20;;;;;;;;;;;7.70;99.90;;;;;;5051311;28;20392;-58
2024/01/23 11:29:46;;;;;;;;;;;7.60;99.90;;;;;;5064361;28;20262;-56
2024/01/23 11:32:19;;;;;;;;;;;7.70;99.90;;;;;;5045110;28;19929;-55
2024/01/23 11:34:45;;;;;;;;;;;7.70;99.90;;;;;;5042016;28;20361;-53
2024/01/23 11:37:29;;;;;;;;;;;7.70;99.90;;;;;;5039563;28;20749;-55
2024/01/23 11:39:54;;;;;;;;;;;7.80;99.90;;;;;;5070989;28;19990;-54
2024/01/23 11:42:20;;;;;;;;;;;7.80;99.90;;;;;;5071284;28;19972;-57
2024/01/23 11:44:45;;;;;;;;;;;7.80;99.90;;;;;;5060008;28;19912;-56
2024/01/23 11:47:11;;;;;;;;;;;8.00;99.90;;;;;;5047639;28;20315;-56
2024/01/23 11:49:36;;;;;;;;;;;8.30;99.90;;;;;;5062336;28;20014;-57
2024/01/23 11:52:03;;;;;;;;;;;8.60;99.90;;;;;;5054286;28;20402;-56
2024/01/23 11:54:28;;;;;;;;;;;8.60;99.90;;;;;;5064189;28;19999;-56
2024/01/23 11:56:54;;;;;;;;;;;8.30;99.90;;;;;;5050325;28;20003;-58
2024/01/23 11:59:20;;;;;;;;;;;8.30;99.90;;;;;;5056491;28;20046;-53
2024/01/23 12:01:46;;;;;;;;;;;8.20;99.90;;;;;;5061710;28;19920;-54
2024/01/23 12:04:11;;;;;;;;;;;8.30;99.90;;;;;;5058988;28;19909;-56
2024/01/23 12:06:37;;;;;;;;;;;8.30;99.90;;;;;;5065218;28;19919;-53
2024/01/23 12:09:04;;;;;;;;;;;8.60;99.90;;;;;;5050819;28;19917;-57
2024/01/23 12:11:30;;;;;;;;;;;9.00;99.90;;;;;;5057491;28;19916;-52
2024/01/23 12:13:56;;;;;;;;;;;9.30;99.90;;;;;;5045946;28;19921;-53
2024/01/23 12:16:21;;;;;;;;;;;9.50;99.90;;;;;;5052007;28;19919;-55
2024/01/23 12:18:56;;;;;;;;;;;9.60;99.90;;;;;;5052410;28;19920;-53
2024/01/23 12:21:22;;;;;;;;;;;9.30;99.90;;;;;;5064799;28;19909;-53
2024/01/23 12:23:48;;;;;;;;;;;9.20;99.90;;;;;;5061937;28;19924;-50
2024/01/23 12:26:15;;;;;;;;;;;8.90;99.90;;;;;;5061271;28;19913;-54
2024/01/23 12:28:41;;;;;;;;;;;8.70;99.90;;;;;;5061680;28;20411;-50
2024/01/23 12:31:11;;;;;;;;;;;8.50;99.90;;;;;;5058482;28;19993;-55
2024/01/23 12:33:38;;;;;;;;;;;8.40;99.90;;;;;;5033828;28;19921;-55
2024/01/23 12:36:05;;;;;;;;;;;8.30;99.90;;;;;;5069228;28;19987;-53
2024/01/23 12:38:31;;;;;;;;;;;8.40;99.90;;;;;;5061662;28;20184;-53
2024/01/23 12:40:59;;;;;;;;;;;8.30;99.90;;;;;;5042732;28;19928;-53
2024/01/23 12:43:24;;;;;;;;;;;8.30;99.90;;;;;;5041571;28;20396;-54
2024/01/23 12:45:53;;;;;;;;;;;8.30;99.90;;;;;;5048013;28;19922;-55
2024/01/23 12:48:20;;;;;;;;;;;8.30;99.90;;;;;;5038050;28;20365;-54
2024/01/23 12:50:45;;;;;;;;;;;8.20;99.90;;;;;;5028133;28;19913;-54
2024/01/23 12:53:10;;;;;;;;;;;8.20;99.90;;;;;;5034153;28;19927;-52
2024/01/23 12:55:36;;;;;;;;;;;8.30;99.90;;;;;;5049251;28;19913;-54
2024/01/23 12:58:03;;;;;;;;;;;8.30;99.90;;;;;;5054764;28;19917;-51
2024/01/23 13:00:28;;;;;;;;;;;8.30;99.90;;;;;;5036946;28;19915;-51
2024/01/23 13:02:54;;;;;;;;;;;8.30;99.90;;;;;;5031144;28;19917;-52
2024/01/23 13:05:21;;;;;;;;;;;8.20;99.90;;;;;;5029074;28;19967;-56
2024/01/23 13:07:51;;;;;;;;;;;8.10;99.90;;;;;;5031393;28;20020;-51
2024/01/23 13:10:16;;;;;;;;;;;8.10;99.90;;;;;;5061407;28;20284;-54
2024/01/23 13:12:42;;;;;;;;;;;8.10;99.90;;;;;;5036620;28;19917;-52
2024/01/23 13:15:08;;;;;;;;;;;8.00;99.90;;;;;;5048369;28;19923;-52
2024/01/23 13:17:34;;;;;;;;;;;7.90;99.90;;;;;;5050168;28;19909;-53
2024/01/23 13:20:09;;;;;;;;;;;7.90;99.90;;;;;;5059204;28;19913;-55
2024/01/23 13:22:39;;;;;;;;;;;7.90;99.90;;;;;;5037577;28;19963;-54
2024/01/23 13:25:04;;;;;;;;;;;7.90;99.90;;;;;;5028890;28;19913;-53
2024/01/23 13:27:31;;;;;;;;;;;8.00;99.90;;;;;;5029654;28;19921;-54
2024/01/23 13:29:56;;;;;;;;;;;7.90;99.90;;;;;;5046277;28;19913;-54
2024/01/23 13:32:23;;;;;;;;;;;7.90;99.90;;;;;;5011379;28;19917;-56
2024/01/23 13:34:50;;;;;;;;;;;7.80;99.90;;;;;;5048397;28;20012;-54
2024/01/23 13:37:15;;;;;;;;;;;7.80;99.90;;;;;;5058893;28;19914;-53
2024/01/23 13:39:41;;;;;;;;;;;7.80;99.90;;;;;;5029069;28;19924;-54
2024/01/23 13:42:06;;;;;;;;;;;7.90;99.90;;;;;;5033162;28;19943;-50
2024/01/23 13:44:32;;;;;;;;;;;7.90;99.90;;;;;;5048122;28;19920;-55
2024/01/23 13:46:57;;;;;;;;;;;7.80;99.90;;;;;;5038715;28;19967;-52
2024/01/23 13:49:23;;;;;;;;;;;7.80;99.90;;;;;;5029109;28;19933;-50
2024/01/23 13:51:48;;;;;;;;;;;7.80;99.90;;;;;;5054828;28;20001;-53
2024/01/23 13:54:15;;;;;;;;;;;7.80;99.90;;;;;;5061962;28;19917;-53
2024/01/23 13:56:40;;;;;;;;;;;7.90;99.90;;;;;;5052010;28;19914;-53
2024/01/23 13:59:06;;;;;;;;;;;7.90;99.90;;;;;;5048980;28;20003;-51
2024/01/23 14:01:32;;;;;;;;;;;7.90;99.90;;;;;;5047781;28;20307;-56
2024/01/23 14:03:57;;;;;;;;;;;8.00;99.90;;;;;;5035457;28;19924;-55
2024/01/23 14:06:23;;;;;;;;;;;8.00;99.90;;;;;;5045941;28;19917;-52
2024/01/23 14:08:48;;;;;;;;;;;7.90;99.90;;;;;;5039469;28;19921;-56
2024/01/23 14:11:14;;;;;;;;;;;7.80;99.90;;;;;;5037902;28;19917;-52
2024/01/23 14:13:39;;;;;;;;;;;7.80;99.90;;;;;;5052253;28;19998;-55
2024/01/23 14:16:05;;;;;;;;;;;7.70;99.90;;;;;;5051328;28;19917;-53
2024/01/23 14:18:31;;;;;;;;;;;7.70;99.90;;;;;;5052188;28;19951;-56
2024/01/23 14:20:56;;;;;;;;;;;7.60;99.90;;;;;;5064274;28;19966;-56
2024/01/23 14:23:21;;;;;;;;;;;7.50;99.90;;;;;;5051186;28;19940;-51